Time;durP1;ratioP1;P1;durP2;ratioP2;P2;SDS_P1;SDS_P2;PMS_P1;PMS_P2;Temp;Humidity;BMP_temperature;BMP_pressure;BME280_temperature;BME280_humidity;BME280_pressure;Samples;Min_cycle;Max_cycle;Signal;HPM_P1;HPM_P2
2021/08/14 00:01:25;;;;;;;12.68;7.80;;;;;;;;;;4994390;28;20058;-48
2021/08/14 00:03:52;;;;;;;17.98;7.78;;;;;;;;;;4994297;28;20034;-49
2021/08/14 00:06:18;;;;;;;16.88;7.00;;;;;;;;;;4994244;28;20068;-48
2021/08/14 00:08:45;;;;;;;14.80;7.53;;;;;;;;;;4994037;28;20124;-48
2021/08/14 00:11:11;;;;;;;13.25;7.07;;;;;;;;;;4994026;28;20114;-48
2021/08/14 00:13:37;;;;;;;10.98;6.45;;;;;;;;;;4994342;28;20044;-47
2021/08/14 00:16:03;;;;;;;12.52;6.93;;;;;;;;;;4994047;28;20039;-49
2021/08/14 00:18:30;;;;;;;9.52;6.68;;;;;;;;;;4992783;28;20482;-48
2021/08/14 00:20:56;;;;;;;16.25;6.88;;;;;;;;;;4994219;28;20390;-48
2021/08/14 00:23:22;;;;;;;12.50;6.15;;;;;;;;;;4994173;28;20041;-48
2021/08/14 00:25:48;;;;;;;12.40;6.82;;;;;;;;;;4993917;28;20032;-47
2021/08/14 00:28:15;;;;;;;11.15;6.70;;;;;;;;;;4994464;28;20034;-47
2021/08/14 00:30:41;;;;;;;13.95;6.95;;;;;;;;;;4993921;28;20022;-48
2021/08/14 00:33:07;;;;;;;10.60;5.95;;;;;;;;;;4993946;28;20122;-49
2021/08/14 00:35:38;;;;;;;12.18;5.63;;;;;;;;;;4993987;28;20040;-49
2021/08/14 00:38:04;;;;;;;11.25;6.68;;;;;;;;;;4994048;28;20061;-48
2021/08/14 00:40:32;;;;;;;11.70;6.30;;;;;;;;;;4993979;28;20034;-48
2021/08/14 00:42:58;;;;;;;11.45;7.07;;;;;;;;;;4993927;28;20037;-48
2021/08/14 00:45:24;;;;;;;11.68;6.95;;;;;;;;;;4994285;28;20022;-48
2021/08/14 00:47:51;;;;;;;13.75;7.25;;;;;;;;;;4993813;28;20026;-48
2021/08/14 00:50:17;;;;;;;17.05;7.28;;;;;;;;;;4993873;28;20062;-47
2021/08/14 00:52:43;;;;;;;15.90;7.60;;;;;;;;;;4994036;28;20034;-49
2021/08/14 00:55:12;;;;;;;14.27;7.63;;;;;;;;;;4993643;28;20029;-48
2021/08/14 00:57:38;;;;;;;17.65;8.02;;;;;;;;;;4993927;28;20049;-48
2021/08/14 01:00:05;;;;;;;19.10;9.48;;;;;;;;;;4993639;28;20471;-49
2021/08/14 01:02:31;;;;;;;13.00;7.47;;;;;;;;;;4993649;28;20038;-48
2021/08/14 01:04:57;;;;;;;10.00;7.07;;;;;;;;;;4997505;28;20106;-47
2021/08/14 01:07:25;;;;;;;14.68;7.90;;;;;;;;;;4997525;28;20030;-49
2021/08/14 01:09:52;;;;;;;16.08;8.30;;;;;;;;;;4997253;28;20189;-48
2021/08/14 01:12:18;;;;;;;14.05;8.13;;;;;;;;;;4997561;28;20034;-49
2021/08/14 01:14:47;;;;;;;18.50;7.35;;;;;;;;;;4997495;28;20130;-48
2021/08/14 01:17:14;;;;;;;11.77;7.95;;;;;;;;;;4997203;28;20026;-49
2021/08/14 01:19:43;;;;;;;12.32;7.60;;;;;;;;;;4997192;28;20022;-50
2021/08/14 01:22:13;;;;;;;13.15;7.57;;;;;;;;;;4997348;28;20046;-48
2021/08/14 01:24:39;;;;;;;14.38;7.72;;;;;;;;;;4997336;28;20030;-48
2021/08/14 01:27:06;;;;;;;15.85;8.02;;;;;;;;;;4997138;28;20029;-49
2021/08/14 01:29:33;;;;;;;14.43;7.40;;;;;;;;;;4997043;28;20088;-49
2021/08/14 01:31:59;;;;;;;12.93;8.38;;;;;;;;;;4996989;28;20101;-49
2021/08/14 01:34:25;;;;;;;10.32;6.93;;;;;;;;;;4996942;28;20474;-49
2021/08/14 01:36:51;;;;;;;14.85;7.93;;;;;;;;;;4996972;28;20026;-50
2021/08/14 01:39:20;;;;;;;16.30;7.45;;;;;;;;;;4996966;28;20446;-50
2021/08/14 01:42:00;;;;;;;16.02;8.35;;;;;;;;;;4996827;28;20482;-48
2021/08/14 01:44:26;;;;;;;13.40;7.27;;;;;;;;;;4996975;28;20474;-49
2021/08/14 01:46:53;;;;;;;12.80;6.57;;;;;;;;;;4996672;28;20027;-50
2021/08/14 01:49:19;;;;;;;12.30;6.82;;;;;;;;;;4996652;28;20057;-50
2021/08/14 01:51:45;;;;;;;11.95;7.55;;;;;;;;;;4996839;28;20023;-49
2021/08/14 01:54:12;;;;;;;11.00;7.35;;;;;;;;;;4996588;28;20037;-49
2021/08/14 01:56:38;;;;;;;11.50;7.63;;;;;;;;;;4996645;28;20031;-50
2021/08/14 01:59:04;;;;;;;13.52;7.75;;;;;;;;;;4996736;28;20077;-48
2021/08/14 02:01:31;;;;;;;14.93;8.00;;;;;;;;;;4996447;28;20122;-50
2021/08/14 02:03:59;;;;;;;13.48;8.25;;;;;;;;;;4996281;28;20065;-48
2021/08/14 02:06:26;;;;;;;32.70;10.48;;;;;;;;;;4996376;28;20022;-50
2021/08/14 02:08:53;;;;;;;15.93;9.27;;;;;;;;;;4996258;28;20522;-49
2021/08/14 02:11:20;;;;;;;13.27;8.35;;;;;;;;;;4996387;28;20041;-47
2021/08/14 02:13:48;;;;;;;12.55;8.68;;;;;;;;;;4995623;28;20105;-48
2021/08/14 02:16:14;;;;;;;18.05;9.15;;;;;;;;;;4995976;28;20081;-47
2021/08/14 02:18:40;;;;;;;15.45;8.65;;;;;;;;;;4996072;28;20024;-49
2021/08/14 02:21:08;;;;;;;15.85;8.88;;;;;;;;;;4996150;28;20536;-50
2021/08/14 02:23:34;;;;;;;17.67;8.07;;;;;;;;;;4995913;28;20050;-47
2021/08/14 02:26:00;;;;;;;17.85;8.25;;;;;;;;;;4996230;28;20098;-48
2021/08/14 02:28:27;;;;;;;13.50;8.23;;;;;;;;;;4995958;28;20030;-48
2021/08/14 02:30:53;;;;;;;12.40;7.50;;;;;;;;;;4996012;28;20073;-49
2021/08/14 02:33:19;;;;;;;15.98;7.95;;;;;;;;;;4995859;28;20433;-50
2021/08/14 02:35:45;;;;;;;16.23;7.40;;;;;;;;;;4995894;28;20030;-50
2021/08/14 02:38:11;;;;;;;13.52;7.45;;;;;;;;;;4995883;28;20351;-50
2021/08/14 02:40:37;;;;;;;14.10;7.65;;;;;;;;;;4995820;28;20238;-49
2021/08/14 02:43:04;;;;;;;15.05;7.30;;;;;;;;;;4995739;28;20042;-49
2021/08/14 02:45:31;;;;;;;13.30;7.70;;;;;;;;;;4995802;28;20097;-49
2021/08/14 02:48:00;;;;;;;11.05;7.25;;;;;;;;;;4995484;28;20039;-50
2021/08/14 02:50:29;;;;;;;12.63;7.82;;;;;;;;;;4995888;28;20030;-51
2021/08/14 02:52:56;;;;;;;13.50;7.30;;;;;;;;;;4994296;28;20383;-49
2021/08/14 02:55:22;;;;;;;13.00;8.13;;;;;;;;;;4995503;28;20037;-49
2021/08/14 02:57:48;;;;;;;16.38;7.85;;;;;;;;;;4995487;28;20105;-49
2021/08/14 03:00:14;;;;;;;18.60;7.82;;;;;;;;;;4995369;28;20105;-48
2021/08/14 03:02:41;;;;;;;16.25;8.18;;;;;;;;;;4995183;28;20034;-48
2021/08/14 03:05:07;;;;;;;14.45;7.95;;;;;;;;;;4995282;28;20080;-48
2021/08/14 03:07:33;;;;;;;15.55;8.30;;;;;;;;;;4995317;28;20023;-48
2021/08/14 03:10:00;;;;;;;13.85;8.52;;;;;;;;;;4995063;28;20038;-48
2021/08/14 03:12:26;;;;;;;12.68;7.55;;;;;;;;;;4995317;28;20030;-47
2021/08/14 03:14:53;;;;;;;18.13;7.60;;;;;;;;;;4995385;28;20033;-49
2021/08/14 03:17:19;;;;;;;10.85;7.63;;;;;;;;;;4994935;28;20030;-48
2021/08/14 03:19:45;;;;;;;13.90;6.72;;;;;;;;;;4995273;28;20023;-48
2021/08/14 03:22:11;;;;;;;15.68;7.50;;;;;;;;;;4995000;28;20030;-48
2021/08/14 03:24:38;;;;;;;13.63;6.90;;;;;;;;;;4995019;28;20062;-48
2021/08/14 03:27:05;;;;;;;14.90;7.05;;;;;;;;;;4994785;28;20022;-48
2021/08/14 03:29:31;;;;;;;14.75;8.10;;;;;;;;;;4994906;28;20038;-48
2021/08/14 03:31:57;;;;;;;17.33;7.78;;;;;;;;;;4994914;28;20030;-48
2021/08/14 03:34:23;;;;;;;16.00;7.57;;;;;;;;;;4994753;28;20033;-48
2021/08/14 03:36:51;;;;;;;15.75;7.40;;;;;;;;;;4994719;28;20478;-47
2021/08/14 03:39:18;;;;;;;16.25;7.88;;;;;;;;;;4994584;28;20062;-48
2021/08/14 03:41:44;;;;;;;11.75;7.35;;;;;;;;;;4994742;28;20045;-48
2021/08/14 03:44:10;;;;;;;15.10;7.85;;;;;;;;;;4994527;28;20117;-50
2021/08/14 03:46:38;;;;;;;12.90;7.80;;;;;;;;;;4994634;28;20467;-47
2021/08/14 03:49:04;;;;;;;16.50;8.07;;;;;;;;;;4994534;28;20526;-47
2021/08/14 03:51:30;;;;;;;17.67;8.70;;;;;;;;;;4994569;28;20015;-49
2021/08/14 03:53:57;;;;;;;14.63;8.88;;;;;;;;;;4994638;28;20034;-48
2021/08/14 03:56:23;;;;;;;22.88;8.60;;;;;;;;;;4994465;28;20368;-49
2021/08/14 03:58:49;;;;;;;22.42;8.85;;;;;;;;;;4994553;28;20032;-49
2021/08/14 04:01:15;;;;;;;16.17;8.07;;;;;;;;;;4994338;28;20022;-48
2021/08/14 04:03:41;;;;;;;15.20;8.90;;;;;;;;;;4994216;28;20093;-48
2021/08/14 04:06:07;;;;;;;16.33;8.60;;;;;;;;;;4994384;28;20022;-48
2021/08/14 04:08:33;;;;;;;15.20;9.02;;;;;;;;;;4994067;28;20081;-49
2021/08/14 04:10:59;;;;;;;17.38;10.07;;;;;;;;;;4994415;28;20034;-48
2021/08/14 04:13:26;;;;;;;17.15;8.50;;;;;;;;;;4994260;28;20029;-48
2021/08/14 04:15:52;;;;;;;15.48;8.60;;;;;;;;;;4994411;28;20390;-48
2021/08/14 04:18:18;;;;;;;16.50;9.57;;;;;;;;;;4994437;28;20073;-48
2021/08/14 04:20:44;;;;;;;17.05;10.02;;;;;;;;;;4994297;28;20025;-48
2021/08/14 04:23:10;;;;;;;15.70;9.68;;;;;;;;;;4994109;28;20479;-48
2021/08/14 04:25:36;;;;;;;14.82;9.23;;;;;;;;;;4994071;28;20030;-47
2021/08/14 04:28:03;;;;;;;21.55;10.15;;;;;;;;;;4994104;28;20528;-48
2021/08/14 04:30:29;;;;;;;16.92;9.00;;;;;;;;;;4994057;28;20034;-48
2021/08/14 04:32:55;;;;;;;15.68;8.63;;;;;;;;;;4993950;28;20073;-49
2021/08/14 04:35:21;;;;;;;20.25;9.18;;;;;;;;;;4994315;28;20380;-47
2021/08/14 04:37:47;;;;;;;15.95;8.75;;;;;;;;;;4995599;28;20109;-48
2021/08/14 04:40:17;;;;;;;19.38;10.00;;;;;;;;;;4998177;28;20029;-49
2021/08/14 04:42:43;;;;;;;21.67;10.87;;;;;;;;;;4997952;28;20062;-48
2021/08/14 04:45:10;;;;;;;19.42;10.30;;;;;;;;;;4997999;28;20125;-50
2021/08/14 04:47:38;;;;;;;19.38;10.88;;;;;;;;;;4997792;28;20026;-50
2021/08/14 04:50:06;;;;;;;20.67;9.80;;;;;;;;;;4997892;28;20021;-49
2021/08/14 04:52:32;;;;;;;14.57;9.23;;;;;;;;;;4997927;28;20414;-48
2021/08/14 04:54:58;;;;;;;20.33;10.10;;;;;;;;;;4997702;28;20184;-49
2021/08/14 04:57:24;;;;;;;18.48;9.07;;;;;;;;;;4997696;28;20391;-50
2021/08/14 04:59:52;;;;;;;18.90;8.98;;;;;;;;;;4997669;28;20031;-49
2021/08/14 05:02:19;;;;;;;17.60;8.85;;;;;;;;;;4997397;28;20022;-47
2021/08/14 05:04:47;;;;;;;17.92;9.48;;;;;;;;;;4997498;28;20085;-49
2021/08/14 05:07:13;;;;;;;18.83;8.15;;;;;;;;;;4997615;28;20026;-46
2021/08/14 05:09:39;;;;;;;16.23;7.95;;;;;;;;;;4997440;28;20048;-47
2021/08/14 05:12:06;;;;;;;17.83;7.97;;;;;;;;;;4997499;28;20041;-47
2021/08/14 05:14:32;;;;;;;15.25;8.95;;;;;;;;;;4997837;28;20026;-47
2021/08/14 05:16:58;;;;;;;17.23;9.75;;;;;;;;;;4997297;28;20463;-47
2021/08/14 05:19:24;;;;;;;15.32;10.18;;;;;;;;;;4997220;28;20062;-47
2021/08/14 05:21:50;;;;;;;17.48;9.10;;;;;;;;;;4997265;28;20439;-48
2021/08/14 05:24:16;;;;;;;19.83;9.25;;;;;;;;;;4997255;28;20117;-48
2021/08/14 05:26:43;;;;;;;17.17;7.82;;;;;;;;;;4997118;28;20394;-48
2021/08/14 05:29:09;;;;;;;13.93;7.35;;;;;;;;;;4997367;28;20027;-48
2021/08/14 05:31:35;;;;;;;14.80;7.70;;;;;;;;;;4997025;28;20026;-48
2021/08/14 05:34:02;;;;;;;13.55;7.60;;;;;;;;;;4997014;28;20030;-49
2021/08/14 05:36:29;;;;;;;25.80;7.97;;;;;;;;;;4997064;28;20019;-49
2021/08/14 05:38:55;;;;;;;14.90;7.32;;;;;;;;;;4997043;28;20058;-49
2021/08/14 05:41:21;;;;;;;14.55;7.78;;;;;;;;;;4996812;28;20061;-49
2021/08/14 05:43:51;;;;;;;13.00;7.18;;;;;;;;;;4996619;28;20451;-48
2021/08/14 05:46:17;;;;;;;16.10;7.60;;;;;;;;;;4997145;28;20025;-47
2021/08/14 05:48:43;;;;;;;13.52;7.25;;;;;;;;;;4995792;28;20037;-48
2021/08/14 05:51:13;;;;;;;13.07;8.18;;;;;;;;;;4996505;28;20057;-48
2021/08/14 05:53:42;;;;;;;13.23;7.68;;;;;;;;;;4996754;28;20057;-48
2021/08/14 05:56:08;;;;;;;14.25;7.30;;;;;;;;;;4996502;28;20050;-48
2021/08/14 05:58:34;;;;;;;12.98;7.88;;;;;;;;;;4996637;28;20026;-48
2021/08/14 06:01:00;;;;;;;12.40;7.00;;;;;;;;;;4996636;28;20022;-47
2021/08/14 06:03:26;;;;;;;12.02;6.57;;;;;;;;;;4996412;28;20450;-47
2021/08/14 06:05:52;;;;;;;15.25;7.53;;;;;;;;;;4996666;28;20018;-47
2021/08/14 06:08:18;;;;;;;13.80;8.65;;;;;;;;;;4996198;28;20022;-48
2021/08/14 06:10:44;;;;;;;19.45;9.13;;;;;;;;;;4996365;28;20042;-46
2021/08/14 06:13:10;;;;;;;13.15;9.25;;;;;;;;;;4996394;28;20034;-46
2021/08/14 06:15:36;;;;;;;10.60;7.75;;;;;;;;;;4996273;28;20037;-46
2021/08/14 06:18:02;;;;;;;10.88;6.55;;;;;;;;;;4996060;28;20165;-47
2021/08/14 06:20:28;;;;;;;11.30;6.13;;;;;;;;;;4996205;28;20486;-47
2021/08/14 06:22:54;;;;;;;18.05;7.15;;;;;;;;;;4996041;28;20030;-46
2021/08/14 06:25:21;;;;;;;14.18;6.63;;;;;;;;;;4996067;28;20502;-47
2021/08/14 06:27:47;;;;;;;15.93;5.85;;;;;;;;;;4996195;28;20034;-47
2021/08/14 06:30:13;;;;;;;10.10;5.47;;;;;;;;;;4995983;28;20030;-46
2021/08/14 06:32:39;;;;;;;10.45;5.05;;;;;;;;;;4995880;28;20022;-46
2021/08/14 06:35:06;;;;;;;11.80;5.40;;;;;;;;;;4995907;28;20489;-46
2021/08/14 06:37:32;;;;;;;11.82;5.70;;;;;;;;;;4996144;28;20027;-46
2021/08/14 06:40:00;;;;;;;10.13;4.88;;;;;;;;;;4995932;28;20058;-46
2021/08/14 06:42:26;;;;;;;8.25;4.45;;;;;;;;;;4995905;28;20101;-47
2021/08/14 06:44:52;;;;;;;8.80;4.53;;;;;;;;;;4996006;28;20118;-46
2021/08/14 06:47:18;;;;;;;9.73;4.85;;;;;;;;;;4995615;28;20027;-46
2021/08/14 06:49:44;;;;;;;7.82;4.68;;;;;;;;;;4995645;28;20028;-46
2021/08/14 06:52:10;;;;;;;6.90;4.82;;;;;;;;;;4995953;28;20482;-46
2021/08/14 06:54:36;;;;;;;7.80;4.68;;;;;;;;;;4995699;28;20054;-47
2021/08/14 06:57:02;;;;;;;8.40;5.13;;;;;;;;;;4995362;28;20084;-46
2021/08/14 06:59:28;;;;;;;10.13;4.40;;;;;;;;;;4995547;28;20019;-47
2021/08/14 07:01:54;;;;;;;5.68;4.65;;;;;;;;;;4995298;28;20040;-46
2021/08/14 07:04:21;;;;;;;8.35;4.18;;;;;;;;;;4995125;28;20512;-46
2021/08/14 07:06:49;;;;;;;7.40;4.40;;;;;;;;;;4995441;28;20493;-47
2021/08/14 07:09:16;;;;;;;7.95;4.53;;;;;;;;;;4995099;28;20049;-48
2021/08/14 07:11:45;;;;;;;9.23;4.82;;;;;;;;;;4995265;28;20109;-48
2021/08/14 07:14:11;;;;;;;7.15;4.80;;;;;;;;;;4995135;28;20541;-47
2021/08/14 07:16:37;;;;;;;6.88;4.18;;;;;;;;;;4995054;28;20022;-47
2021/08/14 07:19:03;;;;;;;7.63;4.35;;;;;;;;;;4994895;28;20363;-47
2021/08/14 07:21:29;;;;;;;7.53;4.53;;;;;;;;;;4995025;28;20022;-47
2021/08/14 07:23:56;;;;;;;10.63;4.40;;;;;;;;;;4994994;28;20041;-47
2021/08/14 07:26:23;;;;;;;12.07;5.22;;;;;;;;;;4995049;28;20022;-47
2021/08/14 07:28:49;;;;;;;9.05;4.95;;;;;;;;;;4994886;28;20470;-47
2021/08/14 07:31:16;;;;;;;11.65;4.55;;;;;;;;;;4994867;28;20053;-47
2021/08/14 07:33:42;;;;;;;7.50;4.85;;;;;;;;;;4994645;28;20403;-46
2021/08/14 07:36:08;;;;;;;8.45;4.60;;;;;;;;;;4994793;28;20019;-47
2021/08/14 07:38:35;;;;;;;7.68;4.25;;;;;;;;;;4994891;28;20038;-48
2021/08/14 07:41:01;;;;;;;6.28;4.47;;;;;;;;;;4994659;28;20411;-47
2021/08/14 07:43:27;;;;;;;5.75;4.50;;;;;;;;;;4994577;28;20453;-48
2021/08/14 07:45:53;;;;;;;9.48;5.30;;;;;;;;;;4994564;28;20101;-49
2021/08/14 07:48:19;;;;;;;7.93;4.65;;;;;;;;;;4994468;28;20525;-48
2021/08/14 07:50:45;;;;;;;7.55;4.28;;;;;;;;;;4994619;28;20030;-47
2021/08/14 07:53:11;;;;;;;7.53;4.20;;;;;;;;;;4994593;28;20032;-48
2021/08/14 07:55:37;;;;;;;8.10;4.32;;;;;;;;;;4994618;28;20033;-48
2021/08/14 07:58:13;;;;;;;9.95;4.45;;;;;;;;;;4994515;28;20022;-47
2021/08/14 08:00:39;;;;;;;7.68;4.32;;;;;;;;;;4994465;28;20033;-47
2021/08/14 08:03:06;;;;;;;7.95;4.93;;;;;;;;;;4993751;28;20026;-47
2021/08/14 08:05:32;;;;;;;11.27;7.65;;;;;;;;;;4994251;28;20030;-47
2021/08/14 08:08:01;;;;;;;19.63;13.95;;;;;;;;;;4994447;28;20054;-47
2021/08/14 08:10:27;;;;;;;10.05;4.85;;;;;;;;;;4993998;28;20054;-48
2021/08/14 08:12:53;;;;;;;16.00;9.80;;;;;;;;;;4993523;28;20019;-48
2021/08/14 08:15:19;;;;;;;11.73;5.20;;;;;;;;;;4994091;28;20034;-48
2021/08/14 08:17:46;;;;;;;14.35;7.20;;;;;;;;;;4994277;28;20478;-50
2021/08/14 08:20:12;;;;;;;19.25;5.32;;;;;;;;;;4994044;28;20030;-50
2021/08/14 08:22:38;;;;;;;13.35;7.75;;;;;;;;;;4993849;28;20022;-49
2021/08/14 08:25:06;;;;;;;8.57;5.13;;;;;;;;;;4994299;28;20034;-48
2021/08/14 08:27:33;;;;;;;7.50;5.22;;;;;;;;;;4994211;28;20615;-48
2021/08/14 08:29:59;;;;;;;9.88;5.45;;;;;;;;;;4994075;28;20034;-47
2021/08/14 08:32:27;;;;;;;16.02;7.60;;;;;;;;;;4993843;28;20023;-48
2021/08/14 08:34:53;;;;;;;12.32;6.38;;;;;;;;;;4993982;28;20049;-49
2021/08/14 08:37:19;;;;;;;18.45;11.32;;;;;;;;;;4993951;28;20026;-48
2021/08/14 08:39:48;;;;;;;17.05;9.73;;;;;;;;;;4994036;28;20030;-49
2021/08/14 08:42:14;;;;;;;18.15;9.35;;;;;;;;;;4993929;28;20212;-49
2021/08/14 08:44:40;;;;;;;78.43;50.85;;;;;;;;;;4993793;28;20038;-49
2021/08/14 08:47:08;;;;;;;16.00;11.20;;;;;;;;;;4993764;28;20150;-50
2021/08/14 08:49:35;;;;;;;52.45;36.47;;;;;;;;;;4993945;28;20608;-48
2021/08/14 08:52:01;;;;;;;28.30;17.35;;;;;;;;;;4993935;28;20050;-49
2021/08/14 08:54:27;;;;;;;28.30;22.08;;;;;;;;;;4993673;28;20037;-48
2021/08/14 08:56:53;;;;;;;11.60;5.28;;;;;;;;;;4993622;28;20028;-49
2021/08/14 08:59:19;;;;;;;7.35;5.43;;;;;;;;;;4993653;28;20027;-47
2021/08/14 09:01:45;;;;;;;6.53;4.45;;;;;;;;;;4993467;28;20022;-49
2021/08/14 09:04:20;;;;;;;5.63;4.80;;;;;;;;;;4993426;28;20124;-48
2021/08/14 09:06:46;;;;;;;8.93;4.38;;;;;;;;;;4993584;28;20023;-47
2021/08/14 09:09:15;;;;;;;8.77;6.75;;;;;;;;;;4993298;28;20054;-48
2021/08/14 09:11:48;;;;;;;16.52;9.70;;;;;;;;;;4993621;28;20447;-50
2021/08/14 09:14:14;;;;;;;9.50;5.90;;;;;;;;;;4993348;28;20057;-49
2021/08/14 09:16:40;;;;;;;10.68;4.10;;;;;;;;;;4993425;28;20383;-47
2021/08/14 09:19:06;;;;;;;9.93;4.90;;;;;;;;;;4993354;28;20062;-49
2021/08/14 09:21:35;;;;;;;10.00;4.53;;;;;;;;;;4993544;28;20106;-49
2021/08/14 09:24:05;;;;;;;12.98;4.70;;;;;;;;;;4994870;28;20035;-49
2021/08/14 09:26:48;;;;;;;4.75;3.90;;;;;;;;;;4997064;28;20022;-49
2021/08/14 09:29:14;;;;;;;12.63;4.30;;;;;;;;;;4997039;28;20053;-49
2021/08/14 09:31:51;;;;;;;7.50;4.32;;;;;;;;;;4997254;28;20386;-46
2021/08/14 09:34:20;;;;;;;13.27;4.43;;;;;;;;;;4996887;28;20117;-48
2021/08/14 09:36:59;;;;;;;10.25;4.80;;;;;;;;;;4997106;28;20022;-48
2021/08/14 09:39:25;;;;;;;14.75;5.13;;;;;;;;;;4997215;28;20042;-44
2021/08/14 09:42:08;;;;;;;43.28;8.60;;;;;;;;;;4996698;28;20037;-47
2021/08/14 09:44:35;;;;;;;11.93;5.40;;;;;;;;;;4996754;28;20045;-47
2021/08/14 09:47:01;;;;;;;8.98;4.10;;;;;;;;;;4996731;28;20514;-46
2021/08/14 09:49:47;;;;;;;21.70;6.25;;;;;;;;;;4996533;28;20378;-47
2021/08/14 09:52:24;;;;;;;8.27;5.03;;;;;;;;;;4996626;28;20027;-47
2021/08/14 09:54:50;;;;;;;8.10;4.53;;;;;;;;;;4996448;28;20552;-47
2021/08/14 09:57:20;;;;;;;12.27;6.80;;;;;;;;;;4996485;28;20113;-47
2021/08/14 09:59:46;;;;;;;6.75;4.03;;;;;;;;;;4996499;28;20118;-47
2021/08/14 10:02:27;;;;;;;28.55;20.08;;;;;;;;;;4996502;28;20529;-47
2021/08/14 10:04:56;;;;;;;17.48;8.73;;;;;;;;;;4996192;28;20041;-48
2021/08/14 10:07:22;;;;;;;23.38;6.82;;;;;;;;;;4996281;28;20027;-52
2021/08/14 10:09:49;;;;;;;11.27;6.63;;;;;;;;;;4996079;28;20054;-50
2021/08/14 10:12:16;;;;;;;6.15;4.18;;;;;;;;;;4996144;28;20048;-51
2021/08/14 10:14:43;;;;;;;6.60;3.83;;;;;;;;;;4996255;28;20050;-53
2021/08/14 10:17:10;;;;;;;7.45;3.75;;;;;;;;;;4996168;28;20033;-55
2021/08/14 10:19:36;;;;;;;11.00;5.05;;;;;;;;;;4996015;28;20109;-48
2021/08/14 10:22:07;;;;;;;9.35;5.15;;;;;;;;;;4996045;28;20022;-56
2021/08/14 10:24:37;;;;;;;10.82;7.93;;;;;;;;;;4995902;28;20034;-57
2021/08/14 10:27:04;;;;;;;;;;;;;;;;;;4996325;28;20022;-53
2021/08/14 10:29:51;;;;;;;9.15;6.05;;;;;;;;;;4995899;28;19906;-51
2021/08/14 10:32:32;;;;;;;8.23;6.07;;;;;;;;;;4995840;28;20022;-57
2021/08/14 10:35:17;;;;;;;5.25;4.10;;;;;;;;;;4995093;28;20501;-51
2021/08/14 10:37:47;;;;;;;7.60;3.55;;;;;;;;;;4995911;28;20054;-57
2021/08/14 10:40:16;;;;;;;7.00;3.25;;;;;;;;;;4995791;28;20026;-52
2021/08/14 10:42:52;;;;;;;8.45;5.15;;;;;;;;;;4995658;28;20047;-54
2021/08/14 10:45:31;;;;;;;6.03;3.80;;;;;;;;;;4995856;28;20039;-57
2021/08/14 10:48:06;;;;;;;5.40;3.53;;;;;;;;;;4995538;28;20105;-58
2021/08/14 10:50:32;;;;;;;12.63;9.88;;;;;;;;;;4995522;28;20260;-54
2021/08/14 10:53:17;;;;;;;12.50;7.30;;;;;;;;;;4995379;28;20029;-56
2021/08/14 10:55:46;;;;;;;7.43;4.30;;;;;;;;;;4995366;28;20085;-50
2021/08/14 10:58:25;;;;;;;7.03;4.70;;;;;;;;;;4995511;28;20029;-51
2021/08/14 11:00:53;;;;;;;4.85;3.90;;;;;;;;;;4995381;28;20028;-48
2021/08/14 11:03:32;;;;;;;6.20;3.65;;;;;;;;;;4995105;28;20046;-50
2021/08/14 11:06:18;;;;;;;4.10;3.70;;;;;;;;;;4995231;28;20038;-53
2021/08/14 11:08:44;;;;;;;10.23;5.50;;;;;;;;;;4994867;28;20092;-56
2021/08/14 11:11:30;;;;;;;25.90;19.95;;;;;;;;;;4995162;28;20041;-51
2021/08/14 11:14:25;;;;;;;10.32;6.35;;;;;;;;;;4995072;28;20049;-58
2021/08/14 11:16:56;;;;;;;23.35;15.68;;;;;;;;;;4973441;28;20114;-53
2021/08/14 11:19:41;;;;;;;26.65;19.25;;;;;;;;;;4973373;28;20033;-55
2021/08/14 11:22:19;;;;;;;35.45;24.95;;;;;;;;;;4973448;28;20043;-50
2021/08/14 11:24:45;;;;;;;35.17;20.55;;;;;;;;;;4973223;28;20046;-50
2021/08/14 11:27:24;;;;;;;34.88;27.55;;;;;;;;;;4957408;28;20431;-54
2021/08/14 11:29:51;;;;;;;6.97;4.70;;;;;;;;;;4973353;28;20038;-54
2021/08/14 11:32:17;;;;;;;8.88;5.63;;;;;;;;;;4973308;28;20062;-50
2021/08/14 11:34:44;;;;;;;11.60;6.95;;;;;;;;;;4973200;28;20035;-53
2021/08/14 11:37:11;;;;;;;8.43;5.97;;;;;;;;;;4973080;28;20027;-56
2021/08/14 11:39:37;;;;;;;62.92;46.00;;;;;;;;;;4972873;28;20121;-48
2021/08/14 11:42:03;;;;;;;32.35;23.95;;;;;;;;;;4973206;28;20035;-51
2021/08/14 11:44:35;;;;;;;28.92;18.98;;;;;;;;;;4973091;28;20134;-51
2021/08/14 11:47:05;;;;;;;9.35;6.43;;;;;;;;;;4972942;28;20039;-51
2021/08/14 11:49:31;;;;;;;10.43;8.48;;;;;;;;;;4972842;28;20027;-50
2021/08/14 11:52:06;;;;;;;9.20;6.38;;;;;;;;;;4972915;28;20027;-50
2021/08/14 11:54:33;;;;;;;5.93;3.85;;;;;;;;;;4994515;28;20077;-50
2021/08/14 11:57:12;;;;;;;4.80;3.67;;;;;;;;;;4994447;28;20069;-51
2021/08/14 11:59:39;;;;;;;35.53;22.70;;;;;;;;;;4994451;28;20076;-50
2021/08/14 12:02:05;;;;;;;39.42;9.23;;;;;;;;;;4994171;28;20030;-42
2021/08/14 12:04:31;;;;;;;27.33;11.13;;;;;;;;;;4994017;28;20043;-41
2021/08/14 12:06:58;;;;;;;6.80;3.17;;;;;;;;;;4994157;28;20026;-41
2021/08/14 12:09:25;;;;;;;13.07;4.60;;;;;;;;;;4994047;28;20046;-40
2021/08/14 12:11:55;;;;;;;10.00;3.78;;;;;;;;;;4994277;28;20037;-41
2021/08/14 12:14:25;;;;;;;15.18;3.90;;;;;;;;;;4994029;28;20556;-41
2021/08/14 12:17:03;;;;;;;8.80;3.50;;;;;;;;;;4994009;28;20077;-41
2021/08/14 12:19:29;;;;;;;7.95;3.78;;;;;;;;;;4993851;28;20337;-41
2021/08/14 12:22:06;;;;;;;4.53;3.65;;;;;;;;;;4993907;28;20084;-42
2021/08/14 12:24:32;;;;;;;6.43;3.58;;;;;;;;;;4993815;28;20031;-41
2021/08/14 12:26:58;;;;;;;35.65;27.48;;;;;;;;;;4993946;28;20029;-42
2021/08/14 12:29:24;;;;;;;4.88;4.10;;;;;;;;;;4993868;28;20026;-42
2021/08/14 12:31:52;;;;;;;18.00;10.63;;;;;;;;;;4993618;28;20023;-42
2021/08/14 12:34:36;;;;;;;22.27;18.63;;;;;;;;;;4993757;28;20529;-42
2021/08/14 12:37:03;;;;;;;102.13;85.00;;;;;;;;;;4993834;28;20049;-42
2021/08/14 12:39:48;;;;;;;26.52;22.17;;;;;;;;;;4994072;28;20034;-40
2021/08/14 12:42:20;;;;;;;20.00;14.75;;;;;;;;;;4993759;28;20406;-41
2021/08/14 12:44:48;;;;;;;9.23;6.40;;;;;;;;;;4993870;28;20457;-41
2021/08/14 12:47:26;;;;;;;14.50;9.45;;;;;;;;;;4993730;28;20022;-40
2021/08/14 12:50:12;;;;;;;9.70;4.38;;;;;;;;;;4993633;28;20018;-39
2021/08/14 12:52:39;;;;;;;11.13;5.82;;;;;;;;;;4993685;28;20443;-41
2021/08/14 12:55:05;;;;;;;6.45;3.78;;;;;;;;;;4993608;28;20113;-41
2021/08/14 12:57:31;;;;;;;13.05;8.60;;;;;;;;;;4993777;28;20022;-43
2021/08/14 12:59:57;;;;;;;25.15;16.05;;;;;;;;;;4996831;28;20044;-41
2021/08/14 13:02:23;;;;;;;13.48;6.05;;;;;;;;;;4997586;28;20101;-43
2021/08/14 13:04:49;;;;;;;123.07;91.70;;;;;;;;;;4997378;28;20034;-40
2021/08/14 13:07:15;;;;;;;39.45;32.15;;;;;;;;;;4997319;28;20019;-41
2021/08/14 13:09:44;;;;;;;62.33;46.13;;;;;;;;;;4996904;28;20134;-41
2021/08/14 13:12:12;;;;;;;30.58;22.27;;;;;;;;;;4997261;28;20042;-42
2021/08/14 13:14:39;;;;;;;18.52;7.57;;;;;;;;;;4997244;28;20049;-42
2021/08/14 13:17:05;;;;;;;29.13;12.38;;;;;;;;;;4997194;28;20025;-41
2021/08/14 13:19:33;;;;;;;6.80;4.65;;;;;;;;;;4997027;28;20026;-42
2021/08/14 13:21:59;;;;;;;14.85;7.80;;;;;;;;;;4997105;28;20036;-42
2021/08/14 13:24:25;;;;;;;8.60;4.78;;;;;;;;;;4996914;28;20030;-42
2021/08/14 13:26:51;;;;;;;9.88;4.25;;;;;;;;;;4997096;28;20054;-43
2021/08/14 13:29:17;;;;;;;4.85;3.72;;;;;;;;;;4997083;28;20034;-42
2021/08/14 13:31:44;;;;;;;5.50;3.88;;;;;;;;;;4997026;28;20034;-42
2021/08/14 13:34:11;;;;;;;15.88;8.10;;;;;;;;;;4996954;28;20018;-42
2021/08/14 13:36:38;;;;;;;53.60;33.13;;;;;;;;;;4996715;28;20029;-42
2021/08/14 13:39:05;;;;;;;24.17;16.92;;;;;;;;;;4996726;28;20037;-41
2021/08/14 13:41:31;;;;;;;9.20;5.13;;;;;;;;;;4996812;28;20031;-41
2021/08/14 13:44:06;;;;;;;6.50;4.00;;;;;;;;;;4996719;28;20049;-42
2021/08/14 13:46:33;;;;;;;7.32;5.00;;;;;;;;;;4996923;28;20033;-41
2021/08/14 13:49:01;;;;;;;5.90;3.85;;;;;;;;;;4996705;28;20030;-42
2021/08/14 13:51:28;;;;;;;8.05;4.75;;;;;;;;;;4996627;28;20029;-42
2021/08/14 13:53:57;;;;;;;4.63;3.97;;;;;;;;;;4996582;28;20027;-42
2021/08/14 13:56:25;;;;;;;11.50;4.55;;;;;;;;;;4996475;28;20030;-42
2021/08/14 13:58:51;;;;;;;11.32;7.03;;;;;;;;;;4996628;28;20073;-42
2021/08/14 14:01:17;;;;;;;7.57;4.85;;;;;;;;;;4996379;28;20030;-41
2021/08/14 14:03:43;;;;;;;5.90;4.47;;;;;;;;;;4996341;28;20072;-41
2021/08/14 14:06:09;;;;;;;7.15;4.45;;;;;;;;;;4996263;28;20457;-41
2021/08/14 14:08:37;;;;;;;32.58;24.05;;;;;;;;;;4996101;28;20399;-42
2021/08/14 14:11:03;;;;;;;23.33;16.75;;;;;;;;;;4995018;28;20026;-41
2021/08/14 14:13:30;;;;;;;12.40;6.53;;;;;;;;;;4996214;28;20030;-41
2021/08/14 14:15:56;;;;;;;9.68;4.50;;;;;;;;;;4996356;28;20118;-41
2021/08/14 14:18:22;;;;;;;4.72;3.55;;;;;;;;;;4996116;28;20073;-42
2021/08/14 14:20:50;;;;;;;11.30;8.70;;;;;;;;;;4996052;28;20446;-42
2021/08/14 14:23:19;;;;;;;6.88;5.15;;;;;;;;;;4996015;28;20030;-42
2021/08/14 14:25:45;;;;;;;16.17;12.13;;;;;;;;;;4996096;28;20050;-42
2021/08/14 14:28:11;;;;;;;18.52;13.27;;;;;;;;;;4996041;28;20026;-42
2021/08/14 14:30:37;;;;;;;6.05;4.85;;;;;;;;;;4995863;28;20105;-42
2021/08/14 14:33:03;;;;;;;9.00;6.78;;;;;;;;;;4995859;28;20018;-42
2021/08/14 14:35:29;;;;;;;8.75;5.35;;;;;;;;;;4995740;28;20038;-41